Terminal Aerodrome Forecast
Issued by NWS Tampa Bay Area, FL

Home | Current Version | Previous Version | Text Only | Print | Product List | Glossary On
Versions: 1 2 3 4 5 6 7 8 9 10 11 12 13 14 15 16 17 18 19 20 21 22 23 24 25 26
841
FTUS42 KTBW 211722
TAFTPA
TAF
KTPA 211722Z 2118/2224 12010KT P6SM BKN035
     FM212100 13008KT P6SM SCT050
     FM220200 09005KT P6SM FEW025
     FM221400 09007KT P6SM SCT025
     FM221800 10007KT P6SM SCT045=

USA.gov is the U.S. government's official web portal to all federal, state and local government web resources and services.